sensor_id;sensor_type;location;lat;lon;timestamp;P1;durP1;ratioP1;P2;durP2;ratioP2
79438;SDS011;68889;48.232;10.110;2024-01-16T00:00:56;3.72;;;1.65;;
79438;SDS011;68889;48.232;10.110;2024-01-16T00:03:21;3.42;;;1.52;;
79438;SDS011;68889;48.232;10.110;2024-01-16T00:05:47;5.47;;;2.00;;
79438;SDS011;68889;48.232;10.110;2024-01-16T00:08:14;3.42;;;1.90;;
79438;SDS011;68889;48.232;10.110;2024-01-16T00:10:39;5.25;;;1.77;;
79438;SDS011;68889;48.232;10.110;2024-01-16T00:13:05;3.25;;;1.90;;
79438;SDS011;68889;48.232;10.110;2024-01-16T00:15:31;2.60;;;1.70;;
79438;SDS011;68889;48.232;10.110;2024-01-16T00:17:58;4.43;;;1.70;;
79438;SDS011;68889;48.232;10.110;2024-01-16T00:20:23;3.88;;;1.60;;
79438;SDS011;68889;48.232;10.110;2024-01-16T00:25:17;3.45;;;1.90;;
79438;SDS011;68889;48.232;10.110;2024-01-16T00:27:45;5.25;;;2.10;;
79438;SDS011;68889;48.232;10.110;2024-01-16T00:30:11;4.05;;;1.90;;
79438;SDS011;68889;48.232;10.110;2024-01-16T00:32:38;4.35;;;1.88;;
79438;SDS011;68889;48.232;10.110;2024-01-16T00:35:04;4.43;;;1.95;;
79438;SDS011;68889;48.232;10.110;2024-01-16T00:37:30;3.90;;;2.17;;
79438;SDS011;68889;48.232;10.110;2024-01-16T00:39:56;3.83;;;2.10;;
79438;SDS011;68889;48.232;10.110;2024-01-16T00:42:21;5.22;;;2.58;;
79438;SDS011;68889;48.232;10.110;2024-01-16T00:44:47;3.08;;;1.90;;
79438;SDS011;68889;48.232;10.110;2024-01-16T00:47:13;3.20;;;1.60;;
79438;SDS011;68889;48.232;10.110;2024-01-16T00:49:39;4.28;;;1.58;;
79438;SDS011;68889;48.232;10.110;2024-01-16T00:52:05;3.00;;;1.52;;
79438;SDS011;68889;48.232;10.110;2024-01-16T00:56:57;3.22;;;1.70;;
79438;SDS011;68889;48.232;10.110;2024-01-16T00:59:25;4.05;;;1.90;;
79438;SDS011;68889;48.232;10.110;2024-01-16T01:27:51;4.07;;;1.90;;
79438;SDS011;68889;48.232;10.110;2024-01-16T01:30:17;5.43;;;1.92;;
79438;SDS011;68889;48.232;10.110;2024-01-16T01:32:44;2.85;;;1.80;;
79438;SDS011;68889;48.232;10.110;2024-01-16T01:35:10;5.13;;;2.30;;
79438;SDS011;68889;48.232;10.110;2024-01-16T01:37:37;4.97;;;2.30;;
79438;SDS011;68889;48.232;10.110;2024-01-16T01:40:03;5.15;;;2.20;;
79438;SDS011;68889;48.232;10.110;2024-01-16T01:42:30;2.88;;;1.73;;
79438;SDS011;68889;48.232;10.110;2024-01-16T01:44:56;3.97;;;1.80;;
79438;SDS011;68889;48.232;10.110;2024-01-16T01:47:23;4.57;;;2.05;;
79438;SDS011;68889;48.232;10.110;2024-01-16T01:49:50;4.72;;;2.60;;
79438;SDS011;68889;48.232;10.110;2024-01-16T01:52:16;3.53;;;1.85;;
79438;SDS011;68889;48.232;10.110;2024-01-16T01:54:43;5.00;;;2.33;;
79438;SDS011;68889;48.232;10.110;2024-01-16T01:57:09;3.45;;;1.70;;
79438;SDS011;68889;48.232;10.110;2024-01-16T01:59:35;3.33;;;1.88;;
79438;SDS011;68889;48.232;10.110;2024-01-16T02:02:01;4.72;;;2.30;;
79438;SDS011;68889;48.232;10.110;2024-01-16T02:04:29;5.07;;;2.10;;
79438;SDS011;68889;48.232;10.110;2024-01-16T02:06:56;5.00;;;2.05;;
79438;SDS011;68889;48.232;10.110;2024-01-16T02:09:23;5.75;;;2.00;;
79438;SDS011;68889;48.232;10.110;2024-01-16T02:11:48;4.60;;;2.20;;
79438;SDS011;68889;48.232;10.110;2024-01-16T02:14:14;4.75;;;2.08;;
79438;SDS011;68889;48.232;10.110;2024-01-16T02:16:41;4.35;;;2.22;;
79438;SDS011;68889;48.232;10.110;2024-01-16T02:19:09;4.28;;;2.20;;
79438;SDS011;68889;48.232;10.110;2024-01-16T02:21:43;4.68;;;2.28;;
79438;SDS011;68889;48.232;10.110;2024-01-16T02:24:16;3.80;;;2.38;;
79438;SDS011;68889;48.232;10.110;2024-01-16T02:26:43;3.10;;;1.77;;
79438;SDS011;68889;48.232;10.110;2024-01-16T02:29:09;5.70;;;2.85;;
79438;SDS011;68889;48.232;10.110;2024-01-16T02:31:35;5.00;;;2.40;;
79438;SDS011;68889;48.232;10.110;2024-01-16T02:34:01;3.72;;;2.10;;
79438;SDS011;68889;48.232;10.110;2024-01-16T02:36:27;6.80;;;2.60;;
79438;SDS011;68889;48.232;10.110;2024-01-16T02:38:54;4.88;;;1.92;;
79438;SDS011;68889;48.232;10.110;2024-01-16T02:41:20;4.28;;;2.28;;
79438;SDS011;68889;48.232;10.110;2024-01-16T02:43:45;4.57;;;2.50;;
79438;SDS011;68889;48.232;10.110;2024-01-16T02:46:11;4.63;;;2.33;;
79438;SDS011;68889;48.232;10.110;2024-01-16T02:48:38;6.18;;;2.50;;
79438;SDS011;68889;48.232;10.110;2024-01-16T02:51:04;3.30;;;2.08;;
79438;SDS011;68889;48.232;10.110;2024-01-16T02:53:30;4.53;;;2.65;;
79438;SDS011;68889;48.232;10.110;2024-01-16T02:55:56;6.28;;;2.50;;
79438;SDS011;68889;48.232;10.110;2024-01-16T02:58:26;5.72;;;2.33;;
79438;SDS011;68889;48.232;10.110;2024-01-16T03:00:53;4.85;;;2.55;;
79438;SDS011;68889;48.232;10.110;2024-01-16T03:03:19;4.75;;;2.40;;
79438;SDS011;68889;48.232;10.110;2024-01-16T03:05:45;9.10;;;3.00;;
79438;SDS011;68889;48.232;10.110;2024-01-16T03:08:11;5.78;;;2.60;;
79438;SDS011;68889;48.232;10.110;2024-01-16T03:10:37;4.45;;;2.35;;
79438;SDS011;68889;48.232;10.110;2024-01-16T03:13:02;5.28;;;2.35;;
79438;SDS011;68889;48.232;10.110;2024-01-16T03:15:28;5.93;;;2.85;;
79438;SDS011;68889;48.232;10.110;2024-01-16T03:18:00;7.80;;;2.78;;
79438;SDS011;68889;48.232;10.110;2024-01-16T03:20:26;4.82;;;2.20;;
79438;SDS011;68889;48.232;10.110;2024-01-16T03:22:52;5.05;;;2.35;;
79438;SDS011;68889;48.232;10.110;2024-01-16T03:25:18;4.45;;;2.40;;
79438;SDS011;68889;48.232;10.110;2024-01-16T03:27:44;4.20;;;2.13;;
79438;SDS011;68889;48.232;10.110;2024-01-16T03:30:10;5.30;;;2.40;;
79438;SDS011;68889;48.232;10.110;2024-01-16T03:32:37;4.78;;;2.22;;
79438;SDS011;68889;48.232;10.110;2024-01-16T03:35:03;6.03;;;2.15;;
79438;SDS011;68889;48.232;10.110;2024-01-16T03:37:30;4.72;;;2.03;;
79438;SDS011;68889;48.232;10.110;2024-01-16T03:39:55;4.75;;;2.35;;
79438;SDS011;68889;48.232;10.110;2024-01-16T03:42:22;4.97;;;2.35;;
79438;SDS011;68889;48.232;10.110;2024-01-16T03:44:48;4.78;;;2.25;;
79438;SDS011;68889;48.232;10.110;2024-01-16T03:47:14;4.32;;;2.15;;
79438;SDS011;68889;48.232;10.110;2024-01-16T03:49:40;4.00;;;2.17;;
79438;SDS011;68889;48.232;10.110;2024-01-16T03:52:06;5.68;;;2.60;;
79438;SDS011;68889;48.232;10.110;2024-01-16T03:54:31;5.90;;;2.67;;
79438;SDS011;68889;48.232;10.110;2024-01-16T03:56:57;3.90;;;2.00;;
79438;SDS011;68889;48.232;10.110;2024-01-16T03:59:23;5.57;;;2.60;;
79438;SDS011;68889;48.232;10.110;2024-01-16T04:01:49;4.53;;;2.25;;
79438;SDS011;68889;48.232;10.110;2024-01-16T04:04:15;5.35;;;2.22;;
79438;SDS011;68889;48.232;10.110;2024-01-16T04:06:42;4.68;;;2.67;;
79438;SDS011;68889;48.232;10.110;2024-01-16T04:09:07;4.55;;;2.38;;
79438;SDS011;68889;48.232;10.110;2024-01-16T04:11:35;4.50;;;2.10;;
79438;SDS011;68889;48.232;10.110;2024-01-16T04:16:27;4.30;;;2.22;;
79438;SDS011;68889;48.232;10.110;2024-01-16T04:18:53;4.38;;;2.45;;
79438;SDS011;68889;48.232;10.110;2024-01-16T04:21:18;3.75;;;2.00;;
79438;SDS011;68889;48.232;10.110;2024-01-16T04:23:44;5.32;;;2.63;;
79438;SDS011;68889;48.232;10.110;2024-01-16T04:26:10;6.63;;;3.10;;
79438;SDS011;68889;48.232;10.110;2024-01-16T04:28:36;4.47;;;2.45;;
79438;SDS011;68889;48.232;10.110;2024-01-16T04:31:04;5.95;;;2.58;;
79438;SDS011;68889;48.232;10.110;2024-01-16T04:33:30;5.63;;;2.97;;
79438;SDS011;68889;48.232;10.110;2024-01-16T04:35:56;9.02;;;3.40;;
79438;SDS011;68889;48.232;10.110;2024-01-16T04:38:22;5.78;;;2.58;;
79438;SDS011;68889;48.232;10.110;2024-01-16T04:40:48;5.13;;;2.50;;
79438;SDS011;68889;48.232;10.110;2024-01-16T04:43:14;6.25;;;2.30;;
79438;SDS011;68889;48.232;10.110;2024-01-16T04:45:40;4.25;;;2.50;;
79438;SDS011;68889;48.232;10.110;2024-01-16T04:48:06;3.63;;;2.03;;
79438;SDS011;68889;48.232;10.110;2024-01-16T04:50:33;5.00;;;2.40;;
79438;SDS011;68889;48.232;10.110;2024-01-16T04:53:01;6.45;;;2.45;;
79438;SDS011;68889;48.232;10.110;2024-01-16T04:55:27;4.68;;;2.45;;
79438;SDS011;68889;48.232;10.110;2024-01-16T04:57:54;4.60;;;2.47;;
79438;SDS011;68889;48.232;10.110;2024-01-16T05:00:20;4.75;;;2.50;;
79438;SDS011;68889;48.232;10.110;2024-01-16T05:02:46;4.63;;;2.42;;
79438;SDS011;68889;48.232;10.110;2024-01-16T05:05:12;6.30;;;2.55;;
79438;SDS011;68889;48.232;10.110;2024-01-16T05:07:38;4.75;;;2.45;;
79438;SDS011;68889;48.232;10.110;2024-01-16T05:10:04;4.20;;;2.80;;
79438;SDS011;68889;48.232;10.110;2024-01-16T05:12:31;5.25;;;2.63;;
79438;SDS011;68889;48.232;10.110;2024-01-16T05:14:57;5.38;;;2.90;;
79438;SDS011;68889;48.232;10.110;2024-01-16T05:17:23;6.72;;;2.83;;
79438;SDS011;68889;48.232;10.110;2024-01-16T05:19:49;7.95;;;3.80;;
79438;SDS011;68889;48.232;10.110;2024-01-16T05:22:16;7.78;;;2.92;;
79438;SDS011;68889;48.232;10.110;2024-01-16T05:24:42;5.80;;;3.10;;
79438;SDS011;68889;48.232;10.110;2024-01-16T05:27:08;7.45;;;3.40;;
79438;SDS011;68889;48.232;10.110;2024-01-16T05:29:34;5.90;;;3.05;;
79438;SDS011;68889;48.232;10.110;2024-01-16T05:32:03;5.82;;;2.13;;
79438;SDS011;68889;48.232;10.110;2024-01-16T05:34:29;5.75;;;2.20;;
79438;SDS011;68889;48.232;10.110;2024-01-16T05:36:55;6.40;;;2.47;;
79438;SDS011;68889;48.232;10.110;2024-01-16T05:39:20;5.20;;;2.28;;
79438;SDS011;68889;48.232;10.110;2024-01-16T05:41:47;4.47;;;2.50;;
79438;SDS011;68889;48.232;10.110;2024-01-16T05:44:13;4.95;;;2.40;;
79438;SDS011;68889;48.232;10.110;2024-01-16T05:46:39;4.68;;;2.10;;
79438;SDS011;68889;48.232;10.110;2024-01-16T05:49:04;5.53;;;2.47;;
79438;SDS011;68889;48.232;10.110;2024-01-16T05:51:30;3.17;;;1.95;;
79438;SDS011;68889;48.232;10.110;2024-01-16T05:53:56;6.07;;;2.50;;
79438;SDS011;68889;48.232;10.110;2024-01-16T05:56:22;5.43;;;2.20;;
79438;SDS011;68889;48.232;10.110;2024-01-16T05:58:47;4.43;;;2.20;;
79438;SDS011;68889;48.232;10.110;2024-01-16T06:01:13;3.88;;;2.00;;
79438;SDS011;68889;48.232;10.110;2024-01-16T06:03:39;3.95;;;1.92;;
79438;SDS011;68889;48.232;10.110;2024-01-16T06:06:05;3.47;;;2.17;;
79438;SDS011;68889;48.232;10.110;2024-01-16T06:08:32;5.05;;;2.50;;
79438;SDS011;68889;48.232;10.110;2024-01-16T06:10:58;5.13;;;2.28;;
79438;SDS011;68889;48.232;10.110;2024-01-16T06:13:24;5.43;;;2.67;;
79438;SDS011;68889;48.232;10.110;2024-01-16T06:15:49;7.55;;;2.83;;
79438;SDS011;68889;48.232;10.110;2024-01-16T06:18:17;4.40;;;2.50;;
79438;SDS011;68889;48.232;10.110;2024-01-16T06:20:43;5.57;;;2.80;;
79438;SDS011;68889;48.232;10.110;2024-01-16T06:23:09;6.45;;;2.75;;
79438;SDS011;68889;48.232;10.110;2024-01-16T06:25:34;4.88;;;2.55;;
79438;SDS011;68889;48.232;10.110;2024-01-16T06:28:00;4.80;;;3.00;;
79438;SDS011;68889;48.232;10.110;2024-01-16T06:30:26;5.07;;;2.63;;
79438;SDS011;68889;48.232;10.110;2024-01-16T06:32:51;5.55;;;2.88;;
79438;SDS011;68889;48.232;10.110;2024-01-16T06:35:17;7.68;;;2.78;;
79438;SDS011;68889;48.232;10.110;2024-01-16T06:37:43;6.15;;;2.83;;
79438;SDS011;68889;48.232;10.110;2024-01-16T06:40:10;7.43;;;3.03;;
79438;SDS011;68889;48.232;10.110;2024-01-16T06:42:36;5.28;;;3.05;;
79438;SDS011;68889;48.232;10.110;2024-01-16T06:45:05;6.55;;;3.63;;
79438;SDS011;68889;48.232;10.110;2024-01-16T06:47:31;5.90;;;3.28;;
79438;SDS011;68889;48.232;10.110;2024-01-16T06:49:57;7.47;;;3.67;;
79438;SDS011;68889;48.232;10.110;2024-01-16T06:52:24;7.90;;;4.03;;
79438;SDS011;68889;48.232;10.110;2024-01-16T06:54:50;6.07;;;3.95;;
79438;SDS011;68889;48.232;10.110;2024-01-16T06:57:16;8.65;;;4.03;;
79438;SDS011;68889;48.232;10.110;2024-01-16T06:59:41;8.68;;;4.50;;
79438;SDS011;68889;48.232;10.110;2024-01-16T07:02:07;9.27;;;3.80;;
79438;SDS011;68889;48.232;10.110;2024-01-16T07:04:33;8.20;;;4.03;;
79438;SDS011;68889;48.232;10.110;2024-01-16T07:07:00;9.45;;;4.22;;
79438;SDS011;68889;48.232;10.110;2024-01-16T07:09:26;7.90;;;4.10;;
79438;SDS011;68889;48.232;10.110;2024-01-16T07:11:52;7.50;;;3.78;;
79438;SDS011;68889;48.232;10.110;2024-01-16T07:14:18;7.38;;;3.63;;
79438;SDS011;68889;48.232;10.110;2024-01-16T07:16:44;6.88;;;3.72;;
79438;SDS011;68889;48.232;10.110;2024-01-16T07:19:10;6.18;;;3.78;;
79438;SDS011;68889;48.232;10.110;2024-01-16T07:21:37;9.18;;;4.05;;
79438;SDS011;68889;48.232;10.110;2024-01-16T07:24:02;8.43;;;4.13;;
79438;SDS011;68889;48.232;10.110;2024-01-16T07:26:28;8.98;;;4.68;;
79438;SDS011;68889;48.232;10.110;2024-01-16T07:28:54;9.05;;;4.13;;
79438;SDS011;68889;48.232;10.110;2024-01-16T07:31:20;8.27;;;3.90;;
79438;SDS011;68889;48.232;10.110;2024-01-16T07:33:46;8.80;;;4.60;;
79438;SDS011;68889;48.232;10.110;2024-01-16T07:36:12;8.20;;;4.25;;
79438;SDS011;68889;48.232;10.110;2024-01-16T07:38:39;7.65;;;4.38;;
79438;SDS011;68889;48.232;10.110;2024-01-16T07:41:06;9.20;;;4.32;;
79438;SDS011;68889;48.232;10.110;2024-01-16T07:43:32;7.72;;;4.28;;
79438;SDS011;68889;48.232;10.110;2024-01-16T07:45:59;6.95;;;3.63;;
79438;SDS011;68889;48.232;10.110;2024-01-16T07:48:25;9.13;;;3.90;;
79438;SDS011;68889;48.232;10.110;2024-01-16T07:50:50;5.88;;;3.75;;
79438;SDS011;68889;48.232;10.110;2024-01-16T07:53:16;7.55;;;3.47;;
79438;SDS011;68889;48.232;10.110;2024-01-16T07:55:42;7.03;;;3.53;;
79438;SDS011;68889;48.232;10.110;2024-01-16T07:58:12;9.90;;;5.03;;
79438;SDS011;68889;48.232;10.110;2024-01-16T08:00:39;8.68;;;4.90;;
79438;SDS011;68889;48.232;10.110;2024-01-16T08:03:07;9.02;;;4.97;;
79438;SDS011;68889;48.232;10.110;2024-01-16T08:05:35;8.52;;;5.07;;
79438;SDS011;68889;48.232;10.110;2024-01-16T08:08:01;6.47;;;4.50;;
79438;SDS011;68889;48.232;10.110;2024-01-16T08:10:28;7.88;;;3.90;;
79438;SDS011;68889;48.232;10.110;2024-01-16T08:12:55;5.63;;;3.50;;
79438;SDS011;68889;48.232;10.110;2024-01-16T08:15:20;7.70;;;3.83;;
79438;SDS011;68889;48.232;10.110;2024-01-16T08:17:47;6.32;;;3.40;;
79438;SDS011;68889;48.232;10.110;2024-01-16T08:20:13;6.38;;;3.40;;
79438;SDS011;68889;48.232;10.110;2024-01-16T08:22:40;5.25;;;3.15;;
79438;SDS011;68889;48.232;10.110;2024-01-16T08:25:05;4.90;;;2.88;;
79438;SDS011;68889;48.232;10.110;2024-01-16T08:27:31;6.70;;;3.97;;
79438;SDS011;68889;48.232;10.110;2024-01-16T08:29:58;8.40;;;3.17;;
79438;SDS011;68889;48.232;10.110;2024-01-16T08:32:26;6.07;;;2.90;;
79438;SDS011;68889;48.232;10.110;2024-01-16T08:34:52;5.95;;;3.30;;
79438;SDS011;68889;48.232;10.110;2024-01-16T08:37:19;6.28;;;3.72;;
79438;SDS011;68889;48.232;10.110;2024-01-16T08:39:45;9.43;;;4.38;;
79438;SDS011;68889;48.232;10.110;2024-01-16T08:42:10;8.68;;;5.45;;
79438;SDS011;68889;48.232;10.110;2024-01-16T08:44:37;9.15;;;5.35;;
79438;SDS011;68889;48.232;10.110;2024-01-16T08:47:06;11.10;;;5.80;;
79438;SDS011;68889;48.232;10.110;2024-01-16T08:49:32;10.77;;;5.53;;
79438;SDS011;68889;48.232;10.110;2024-01-16T08:51:58;9.52;;;5.80;;
79438;SDS011;68889;48.232;10.110;2024-01-16T08:54:24;8.90;;;5.13;;
79438;SDS011;68889;48.232;10.110;2024-01-16T08:56:51;10.02;;;4.88;;
79438;SDS011;68889;48.232;10.110;2024-01-16T08:59:17;9.48;;;5.57;;
79438;SDS011;68889;48.232;10.110;2024-01-16T09:01:43;9.70;;;5.43;;
79438;SDS011;68889;48.232;10.110;2024-01-16T09:04:09;9.93;;;5.15;;
79438;SDS011;68889;48.232;10.110;2024-01-16T09:06:35;10.48;;;5.50;;
79438;SDS011;68889;48.232;10.110;2024-01-16T09:09:00;10.38;;;4.68;;
79438;SDS011;68889;48.232;10.110;2024-01-16T09:11:29;10.48;;;6.20;;
79438;SDS011;68889;48.232;10.110;2024-01-16T09:13:54;8.65;;;5.05;;
79438;SDS011;68889;48.232;10.110;2024-01-16T09:16:20;10.43;;;5.90;;
79438;SDS011;68889;48.232;10.110;2024-01-16T09:18:46;9.38;;;5.75;;
79438;SDS011;68889;48.232;10.110;2024-01-16T09:21:11;8.70;;;4.68;;
79438;SDS011;68889;48.232;10.110;2024-01-16T09:23:38;9.10;;;5.68;;
79438;SDS011;68889;48.232;10.110;2024-01-16T09:26:03;8.43;;;5.20;;
79438;SDS011;68889;48.232;10.110;2024-01-16T09:28:29;11.82;;;6.00;;
79438;SDS011;68889;48.232;10.110;2024-01-16T09:30:56;11.77;;;5.45;;
79438;SDS011;68889;48.232;10.110;2024-01-16T09:33:22;10.13;;;6.00;;
79438;SDS011;68889;48.232;10.110;2024-01-16T09:35:48;7.47;;;4.80;;
79438;SDS011;68889;48.232;10.110;2024-01-16T09:38:14;12.13;;;6.00;;
79438;SDS011;68889;48.232;10.110;2024-01-16T09:40:40;10.40;;;5.40;;
79438;SDS011;68889;48.232;10.110;2024-01-16T09:43:06;10.55;;;5.53;;
79438;SDS011;68889;48.232;10.110;2024-01-16T09:45:33;7.50;;;4.93;;
79438;SDS011;68889;48.232;10.110;2024-01-16T09:48:03;10.52;;;5.00;;
79438;SDS011;68889;48.232;10.110;2024-01-16T09:50:31;9.13;;;4.97;;
79438;SDS011;68889;48.232;10.110;2024-01-16T09:52:57;8.45;;;5.30;;
79438;SDS011;68889;48.232;10.110;2024-01-16T09:55:23;11.02;;;5.03;;
79438;SDS011;68889;48.232;10.110;2024-01-16T09:57:53;9.40;;;5.20;;
79438;SDS011;68889;48.232;10.110;2024-01-16T10:00:19;10.00;;;4.88;;
79438;SDS011;68889;48.232;10.110;2024-01-16T10:02:45;8.88;;;5.25;;
79438;SDS011;68889;48.232;10.110;2024-01-16T10:05:12;8.38;;;4.72;;
79438;SDS011;68889;48.232;10.110;2024-01-16T10:07:38;7.28;;;5.15;;
79438;SDS011;68889;48.232;10.110;2024-01-16T10:12:36;8.38;;;4.93;;
79438;SDS011;68889;48.232;10.110;2024-01-16T10:15:04;9.48;;;4.70;;
79438;SDS011;68889;48.232;10.110;2024-01-16T10:17:39;7.93;;;3.88;;
79438;SDS011;68889;48.232;10.110;2024-01-16T10:20:10;8.93;;;4.78;;
79438;SDS011;68889;48.232;10.110;2024-01-16T10:22:43;11.00;;;5.20;;
79438;SDS011;68889;48.232;10.110;2024-01-16T10:25:18;7.75;;;5.05;;
79438;SDS011;68889;48.232;10.110;2024-01-16T10:27:46;7.82;;;4.80;;
79438;SDS011;68889;48.232;10.110;2024-01-16T10:30:12;10.18;;;5.22;;
79438;SDS011;68889;48.232;10.110;2024-01-16T10:32:39;9.40;;;5.57;;
79438;SDS011;68889;48.232;10.110;2024-01-16T10:37:41;9.90;;;5.47;;
79438;SDS011;68889;48.232;10.110;2024-01-16T10:40:16;8.88;;;5.00;;
79438;SDS011;68889;48.232;10.110;2024-01-16T10:45:21;8.90;;;5.07;;
79438;SDS011;68889;48.232;10.110;2024-01-16T10:47:47;9.77;;;5.15;;
79438;SDS011;68889;48.232;10.110;2024-01-16T10:50:14;8.30;;;4.88;;
79438;SDS011;68889;48.232;10.110;2024-01-16T10:52:44;7.97;;;5.03;;
79438;SDS011;68889;48.232;10.110;2024-01-16T10:55:19;8.45;;;5.03;;
79438;SDS011;68889;48.232;10.110;2024-01-16T10:57:47;8.65;;;5.13;;
79438;SDS011;68889;48.232;10.110;2024-01-16T11:00:15;7.97;;;5.22;;
79438;SDS011;68889;48.232;10.110;2024-01-16T11:02:45;8.93;;;5.53;;
79438;SDS011;68889;48.232;10.110;2024-01-16T11:05:29;9.07;;;5.13;;
79438;SDS011;68889;48.232;10.110;2024-01-16T11:07:58;8.43;;;4.90;;
79438;SDS011;68889;48.232;10.110;2024-01-16T11:10:26;7.32;;;3.97;;
79438;SDS011;68889;48.232;10.110;2024-01-16T11:12:53;8.02;;;4.70;;
79438;SDS011;68889;48.232;10.110;2024-01-16T11:15:21;9.32;;;5.25;;
79438;SDS011;68889;48.232;10.110;2024-01-16T11:17:50;9.60;;;5.40;;
79438;SDS011;68889;48.232;10.110;2024-01-16T11:20:17;7.85;;;4.75;;
79438;SDS011;68889;48.232;10.110;2024-01-16T11:22:45;8.13;;;5.28;;
79438;SDS011;68889;48.232;10.110;2024-01-16T11:25:12;7.45;;;5.13;;
79438;SDS011;68889;48.232;10.110;2024-01-16T11:27:42;8.75;;;5.22;;
79438;SDS011;68889;48.232;10.110;2024-01-16T11:30:09;10.05;;;5.28;;
79438;SDS011;68889;48.232;10.110;2024-01-16T11:32:40;11.15;;;6.15;;
79438;SDS011;68889;48.232;10.110;2024-01-16T11:35:07;9.40;;;5.35;;
79438;SDS011;68889;48.232;10.110;2024-01-16T11:37:33;10.00;;;5.25;;
79438;SDS011;68889;48.232;10.110;2024-01-16T11:40:23;11.73;;;6.38;;
79438;SDS011;68889;48.232;10.110;2024-01-16T11:42:49;10.45;;;5.75;;
79438;SDS011;68889;48.232;10.110;2024-01-16T11:50:36;10.50;;;6.00;;
79438;SDS011;68889;48.232;10.110;2024-01-16T11:53:03;8.85;;;5.43;;
79438;SDS011;68889;48.232;10.110;2024-01-16T11:55:35;9.80;;;5.35;;
79438;SDS011;68889;48.232;10.110;2024-01-16T11:58:32;8.23;;;4.40;;
79438;SDS011;68889;48.232;10.110;2024-01-16T12:01:11;7.38;;;4.30;;
79438;SDS011;68889;48.232;10.110;2024-01-16T12:03:37;7.32;;;4.35;;
79438;SDS011;68889;48.232;10.110;2024-01-16T12:06:03;6.97;;;4.38;;
79438;SDS011;68889;48.232;10.110;2024-01-16T12:08:31;8.07;;;4.20;;
79438;SDS011;68889;48.232;10.110;2024-01-16T12:10:57;6.55;;;3.88;;
79438;SDS011;68889;48.232;10.110;2024-01-16T12:13:24;8.70;;;4.93;;
79438;SDS011;68889;48.232;10.110;2024-01-16T12:16:00;8.80;;;4.60;;
79438;SDS011;68889;48.232;10.110;2024-01-16T12:18:29;9.20;;;4.60;;
79438;SDS011;68889;48.232;10.110;2024-01-16T12:20:55;8.50;;;4.72;;
79438;SDS011;68889;48.232;10.110;2024-01-16T12:23:22;6.47;;;3.78;;
79438;SDS011;68889;48.232;10.110;2024-01-16T12:25:51;6.35;;;4.30;;
79438;SDS011;68889;48.232;10.110;2024-01-16T12:28:38;6.05;;;3.78;;
79438;SDS011;68889;48.232;10.110;2024-01-16T12:31:05;6.03;;;3.53;;
79438;SDS011;68889;48.232;10.110;2024-01-16T12:33:32;6.00;;;3.67;;
79438;SDS011;68889;48.232;10.110;2024-01-16T12:36:01;6.70;;;3.25;;
79438;SDS011;68889;48.232;10.110;2024-01-16T12:38:28;5.70;;;3.13;;
79438;SDS011;68889;48.232;10.110;2024-01-16T12:40:53;5.78;;;3.33;;
79438;SDS011;68889;48.232;10.110;2024-01-16T12:43:20;6.80;;;3.85;;
79438;SDS011;68889;48.232;10.110;2024-01-16T12:45:46;6.50;;;3.97;;
79438;SDS011;68889;48.232;10.110;2024-01-16T12:48:26;6.60;;;4.03;;
79438;SDS011;68889;48.232;10.110;2024-01-16T12:50:59;6.63;;;3.50;;
79438;SDS011;68889;48.232;10.110;2024-01-16T12:53:28;6.03;;;3.45;;
79438;SDS011;68889;48.232;10.110;2024-01-16T12:55:58;8.55;;;4.40;;
79438;SDS011;68889;48.232;10.110;2024-01-16T12:58:24;6.40;;;3.80;;
79438;SDS011;68889;48.232;10.110;2024-01-16T13:00:58;6.97;;;3.65;;
79438;SDS011;68889;48.232;10.110;2024-01-16T13:03:50;8.70;;;3.67;;
79438;SDS011;68889;48.232;10.110;2024-01-16T13:06:20;6.88;;;3.17;;
79438;SDS011;68889;48.232;10.110;2024-01-16T13:08:47;6.03;;;3.75;;
79438;SDS011;68889;48.232;10.110;2024-01-16T13:11:13;5.28;;;3.63;;
79438;SDS011;68889;48.232;10.110;2024-01-16T13:13:45;4.95;;;2.63;;
79438;SDS011;68889;48.232;10.110;2024-01-16T13:16:14;5.07;;;2.38;;
79438;SDS011;68889;48.232;10.110;2024-01-16T13:18:41;4.43;;;2.53;;
79438;SDS011;68889;48.232;10.110;2024-01-16T13:21:08;5.07;;;2.53;;
79438;SDS011;68889;48.232;10.110;2024-01-16T13:23:34;5.38;;;2.40;;
79438;SDS011;68889;48.232;10.110;2024-01-16T13:26:00;5.68;;;2.70;;
79438;SDS011;68889;48.232;10.110;2024-01-16T13:28:28;6.50;;;2.92;;
79438;SDS011;68889;48.232;10.110;2024-01-16T13:30:54;6.53;;;2.58;;
79438;SDS011;68889;48.232;10.110;2024-01-16T13:33:22;4.22;;;2.60;;
79438;SDS011;68889;48.232;10.110;2024-01-16T13:35:49;5.65;;;2.90;;
79438;SDS011;68889;48.232;10.110;2024-01-16T13:38:15;4.85;;;2.92;;
79438;SDS011;68889;48.232;10.110;2024-01-16T13:40:41;5.40;;;2.70;;
79438;SDS011;68889;48.232;10.110;2024-01-16T13:43:07;5.75;;;2.80;;
79438;SDS011;68889;48.232;10.110;2024-01-16T13:45:34;5.95;;;3.47;;
79438;SDS011;68889;48.232;10.110;2024-01-16T13:48:01;7.72;;;2.97;;
79438;SDS011;68889;48.232;10.110;2024-01-16T13:50:27;6.40;;;3.08;;
79438;SDS011;68889;48.232;10.110;2024-01-16T13:52:53;5.25;;;2.97;;
79438;SDS011;68889;48.232;10.110;2024-01-16T13:55:20;6.10;;;3.05;;
79438;SDS011;68889;48.232;10.110;2024-01-16T13:57:46;5.50;;;2.55;;
79438;SDS011;68889;48.232;10.110;2024-01-16T14:00:12;5.90;;;3.13;;
79438;SDS011;68889;48.232;10.110;2024-01-16T14:02:46;6.40;;;2.70;;
79438;SDS011;68889;48.232;10.110;2024-01-16T14:05:13;6.15;;;3.20;;
79438;SDS011;68889;48.232;10.110;2024-01-16T14:07:45;5.18;;;2.95;;
79438;SDS011;68889;48.232;10.110;2024-01-16T14:10:15;5.97;;;2.95;;
79438;SDS011;68889;48.232;10.110;2024-01-16T14:12:43;4.95;;;3.10;;
79438;SDS011;68889;48.232;10.110;2024-01-16T14:15:10;5.03;;;2.17;;
79438;SDS011;68889;48.232;10.110;2024-01-16T14:20:17;4.32;;;2.72;;
79438;SDS011;68889;48.232;10.110;2024-01-16T14:22:47;6.60;;;3.00;;
79438;SDS011;68889;48.232;10.110;2024-01-16T14:25:13;4.88;;;2.70;;
79438;SDS011;68889;48.232;10.110;2024-01-16T14:27:48;5.25;;;2.63;;
79438;SDS011;68889;48.232;10.110;2024-01-16T14:30:21;5.57;;;2.83;;
79438;SDS011;68889;48.232;10.110;2024-01-16T14:32:47;4.70;;;2.50;;
79438;SDS011;68889;48.232;10.110;2024-01-16T14:35:13;3.92;;;2.22;;
79438;SDS011;68889;48.232;10.110;2024-01-16T14:37:39;5.10;;;2.30;;
79438;SDS011;68889;48.232;10.110;2024-01-16T14:40:06;4.30;;;2.33;;
79438;SDS011;68889;48.232;10.110;2024-01-16T14:42:38;4.65;;;2.22;;
79438;SDS011;68889;48.232;10.110;2024-01-16T14:45:04;4.80;;;2.05;;
79438;SDS011;68889;48.232;10.110;2024-01-16T14:49:56;4.35;;;2.42;;
79438;SDS011;68889;48.232;10.110;2024-01-16T14:52:23;4.57;;;2.58;;
79438;SDS011;68889;48.232;10.110;2024-01-16T14:54:48;3.45;;;1.58;;
79438;SDS011;68889;48.232;10.110;2024-01-16T14:57:15;4.72;;;2.20;;
79438;SDS011;68889;48.232;10.110;2024-01-16T14:59:41;4.00;;;1.90;;
79438;SDS011;68889;48.232;10.110;2024-01-16T15:02:07;3.72;;;1.90;;
79438;SDS011;68889;48.232;10.110;2024-01-16T15:04:41;3.38;;;1.98;;
79438;SDS011;68889;48.232;10.110;2024-01-16T15:09:33;5.20;;;2.70;;
79438;SDS011;68889;48.232;10.110;2024-01-16T15:12:04;5.00;;;3.03;;
79438;SDS011;68889;48.232;10.110;2024-01-16T15:14:31;5.00;;;2.92;;
79438;SDS011;68889;48.232;10.110;2024-01-16T15:16:59;4.55;;;2.00;;
79438;SDS011;68889;48.232;10.110;2024-01-16T15:19:25;7.93;;;2.42;;
79438;SDS011;68889;48.232;10.110;2024-01-16T15:21:51;4.25;;;2.33;;
79438;SDS011;68889;48.232;10.110;2024-01-16T15:24:17;4.55;;;2.50;;
79438;SDS011;68889;48.232;10.110;2024-01-16T15:26:54;5.03;;;2.72;;